Time;durP1;ratioP1;P1;durP2;ratioP2;P2;SDS_P1;SDS_P2;PMS_P1;PMS_P2;Temp;Humidity;BMP_temperature;BMP_pressure;BME280_temperature;BME280_humidity;BME280_pressure;Samples;Min_cycle;Max_cycle;Signal;HPM_P1;HPM_P2
2022/05/25 00:00:11;;;;;;;6.40;4.50;;;;;;99994.10;;;;107663;1275;28685;-30
2022/05/25 00:02:58;;;;;;;5.50;4.10;;;;;;99997.27;;;;107653;1275;29301;-30
2022/05/25 00:05:26;;;;;;;5.80;4.10;;;;;;99999.86;;;;107708;1276;28818;-31
2022/05/25 00:07:53;;;;;;;6.00;4.50;;;;;;100000.08;;;;107591;1276;29717;-30
2022/05/25 00:10:27;;;;;;;6.10;4.40;;;;;;99993.44;;;;107680;1275;27512;-30
2022/05/25 00:12:57;;;;;;;4.90;4.00;;;;;;99998.99;;;;107554;1275;28712;-30
2022/05/25 00:15:28;;;;;;;6.30;4.30;;;;;;100003.58;;;;107573;1276;30930;-32
2022/05/25 00:17:56;;;;;;;5.60;4.60;;;;;;100011.83;;;;107542;1276;28642;-30
2022/05/25 00:20:28;;;;;;;5.70;4.00;;;;;;100020.80;;;;107665;1276;28521;-30
2022/05/25 00:22:58;;;;;;;5.90;4.50;;;;;;100030.29;;;;107548;1276;27559;-29
2022/05/25 00:25:33;;;;;;;6.60;4.20;;;;;;100028.22;;;;107587;1276;28679;-31
2022/05/25 00:28:11;;;;;;;5.30;3.70;;;;;;100020.45;;;;107588;1276;30675;-31
2022/05/25 00:30:44;;;;;;;5.20;4.10;;;;;;100010.02;;;;107569;1276;27505;-32
2022/05/25 00:33:13;;;;;;;7.20;4.90;;;;;;100009.88;;;;107727;1276;27523;-31
2022/05/25 00:35:42;;;;;;;5.20;4.30;;;;;;100012.23;;;;107668;1275;28530;-32
2022/05/25 00:38:10;;;;;;;5.40;3.90;;;;;;100013.04;;;;107765;1275;27331;-31
2022/05/25 00:40:43;;;;;;;6.20;4.20;;;;;;100015.27;;;;107675;1275;27511;-32
2022/05/25 00:43:19;;;;;;;5.70;4.30;;;;;;100010.76;;;;107488;1276;27758;-31
2022/05/25 00:45:52;;;;;;;5.90;4.20;;;;;;99995.73;;;;107644;1275;27733;-32
2022/05/25 00:48:33;;;;;;;5.40;4.20;;;;;;99984.21;;;;107586;1275;30779;-31
2022/05/25 00:51:13;;;;;;;6.30;4.40;;;;;;99989.60;;;;107600;1276;27495;-30
2022/05/25 00:53:51;;;;;;;5.10;4.20;;;;;;99996.86;;;;107562;1276;28520;-31
2022/05/25 00:56:23;;;;;;;4.70;4.10;;;;;;99998.84;;;;107572;1276;27745;-31
2022/05/25 00:59:04;;;;;;;5.60;4.30;;;;;;100000.79;;;;107611;1275;28729;-31
2022/05/25 01:01:31;;;;;;;6.00;4.60;;;;;;100004.73;;;;107654;1275;28563;-31
2022/05/25 01:03:59;;;;;;;6.10;4.30;;;;;;100007.94;;;;107576;1276;30766;-30
2022/05/25 01:06:47;;;;;;;5.40;4.30;;;;;;100010.14;;;;107585;1275;26377;-31
2022/05/25 01:09:42;;;;;;;5.20;4.20;;;;;;100002.26;;;;107657;1276;27882;-31
2022/05/25 01:12:57;;;;;;;5.40;4.20;;;;;;100003.09;;;;107656;1276;28753;-31
2022/05/25 01:16:13;;;;;;;5.90;4.20;;;;;;99993.23;;;;107658;1275;27376;-31
2022/05/25 01:19:12;;;;;;;5.20;4.00;;;;;;99990.77;;;;107628;1278;28732;-31
2022/05/25 01:22:17;;;;;;;5.40;4.70;;;;;;99994.11;;;;107522;1276;26210;-31
2022/05/25 01:25:28;;;;;;;5.00;4.20;;;;;;99994.91;;;;107619;1276;28653;-31
2022/05/25 01:28:15;;;;;;;6.40;4.10;;;;;;99995.58;;;;107656;1276;30657;-32
2022/05/25 01:30:50;;;;;;;5.70;4.20;;;;;;99996.86;;;;107630;1276;27644;-31
2022/05/25 01:33:37;;;;;;;6.00;4.40;;;;;;99992.85;;;;107649;1276;29260;-31
2022/05/25 01:36:35;;;;;;;5.90;4.00;;;;;;99997.45;;;;107661;1276;28693;-31
2022/05/25 01:39:18;;;;;;;6.00;4.20;;;;;;100000.60;;;;107596;1276;30424;-30
2022/05/25 01:42:03;;;;;;;5.10;3.80;;;;;;99998.83;;;;107629;1276;27792;-30
2022/05/25 01:44:43;;;;;;;5.30;4.30;;;;;;99998.34;;;;107649;1276;31047;-30
2022/05/25 01:47:11;;;;;;;6.10;4.50;;;;;;99996.77;;;;107667;1276;30626;-29
2022/05/25 01:49:52;;;;;;;6.90;3.90;;;;;;100000.50;;;;107625;1276;26137;-31
2022/05/25 01:52:53;;;;;;;5.00;3.90;;;;;;99999.96;;;;107553;1276;26081;-30
2022/05/25 01:55:26;;;;;;;6.00;4.10;;;;;;99998.86;;;;107534;1276;30936;-30
2022/05/25 01:58:06;;;;;;;5.00;4.00;;;;;;100003.18;;;;107601;1276;28667;-30
2022/05/25 02:00:42;;;;;;;5.10;4.00;;;;;;100005.29;;;;107594;1275;30785;-31
2022/05/25 02:06:32;;;;;;;5.30;4.30;;;;;;100004.77;;;;107578;1276;30999;-31
2022/05/25 02:09:14;;;;;;;5.40;4.00;;;;;;100005.50;;;;107680;1275;30737;-31
2022/05/25 02:11:49;;;;;;;5.40;4.20;;;;;;100004.39;;;;107680;1275;26193;-31
2022/05/25 02:15:11;;;;;;;5.80;4.20;;;;;;100003.61;;;;107702;1276;28700;-30
2022/05/25 02:18:15;;;;;;;7.00;4.10;;;;;;100001.91;;;;107663;1276;27809;-30
2022/05/25 02:21:26;;;;;;;6.30;4.00;;;;;;99996.91;;;;107691;1276;27394;-31
2022/05/25 02:24:13;;;;;;;;;;;;;;99995.08;;;;107653;1275;28715;-31
2022/05/25 02:26:47;;;;;;;5.40;4.10;;;;;;100001.27;;;;107685;1276;26182;-30
2022/05/25 02:29:39;;;;;;;4.90;4.10;;;;;;100010.10;;;;107625;1276;30940;-31
2022/05/25 02:32:42;;;;;;;5.00;4.10;;;;;;100015.54;;;;107612;1276;28817;-31
2022/05/25 02:35:10;;;;;;;5.00;4.20;;;;;;100017.25;;;;107540;1278;27513;-32
2022/05/25 02:37:40;;;;;;;7.50;4.30;;;;;;100018.08;;;;107705;1276;27968;-31
2022/05/25 02:40:12;;;;;;;5.00;4.10;;;;;;100011.64;;;;107643;1276;27767;-31
2022/05/25 02:42:44;;;;;;;5.60;4.10;;;;;;100016.17;;;;107566;1276;30884;-32
2022/05/25 02:45:23;;;;;;;6.80;4.30;;;;;;100021.98;;;;107676;1276;28507;-30
2022/05/25 02:47:50;;;;;;;5.10;4.20;;;;;;100031.30;;;;107635;1276;28645;-31
2022/05/25 02:50:18;;;;;;;4.80;3.90;;;;;;100034.05;;;;107607;1276;28605;-30
2022/05/25 02:52:49;;;;;;;6.20;4.60;;;;;;100040.28;;;;107610;1276;30858;-31
2022/05/25 02:55:19;;;;;;;5.00;4.20;;;;;;100043.81;;;;107600;1276;27887;-31
2022/05/25 02:57:47;;;;;;;5.60;4.10;;;;;;100044.89;;;;107553;1276;30905;-28
2022/05/25 03:00:17;;;;;;;6.20;4.70;;;;;;100043.69;;;;107574;1276;28736;-31
2022/05/25 03:02:44;;;;;;;6.70;4.30;;;;;;100045.67;;;;107524;1276;28653;-31
2022/05/25 03:05:17;;;;;;;5.60;4.60;;;;;;100041.77;;;;107652;1276;28706;-31
2022/05/25 03:07:45;;;;;;;5.00;3.80;;;;;;100039.35;;;;107599;1276;27527;-32
2022/05/25 03:10:18;;;;;;;5.60;4.10;;;;;;100045.00;;;;107554;1276;28645;-32
2022/05/25 03:12:47;;;;;;;5.30;3.80;;;;;;100043.99;;;;107649;1276;30822;-32
2022/05/25 03:15:20;;;;;;;5.70;4.00;;;;;;100044.81;;;;107603;1276;26267;-30
2022/05/25 03:17:51;;;;;;;5.30;3.80;;;;;;100049.77;;;;107620;1276;28676;-32
2022/05/25 03:20:19;;;;;;;5.60;4.20;;;;;;100048.39;;;;107588;1276;28064;-30
2022/05/25 03:22:59;;;;;;;5.10;4.20;;;;;;100044.91;;;;107650;1276;26583;-30
2022/05/25 03:25:27;;;;;;;5.10;4.10;;;;;;100047.05;;;;107616;1276;27093;-30
2022/05/25 03:27:53;;;;;;;5.30;4.20;;;;;;100048.23;;;;107606;1275;28082;-31
2022/05/25 03:30:22;;;;;;;5.30;4.40;;;;;;100049.61;;;;107676;1276;31373;-30
2022/05/25 03:32:49;;;;;;;5.70;4.30;;;;;;100050.75;;;;107662;1276;30742;-30
2022/05/25 03:35:16;;;;;;;5.40;4.20;;;;;;100051.53;;;;107598;1275;26220;-30
2022/05/25 03:37:43;;;;;;;5.60;4.30;;;;;;100055.27;;;;107499;1276;28790;-30
2022/05/25 03:40:13;;;;;;;5.10;4.30;;;;;;100059.34;;;;107647;1276;27380;-30
2022/05/25 03:42:42;;;;;;;5.60;4.40;;;;;;100058.30;;;;107688;1275;28646;-31
2022/05/25 03:45:12;;;;;;;4.80;4.30;;;;;;100057.20;;;;107656;1276;27393;-30
2022/05/25 03:47:39;;;;;;;5.40;4.20;;;;;;100060.27;;;;107648;1275;26194;-30
2022/05/25 03:50:07;;;;;;;4.90;3.90;;;;;;100057.23;;;;107679;1275;27441;-30
2022/05/25 03:52:34;;;;;;;5.20;4.00;;;;;;100058.59;;;;107581;1276;28734;-30
2022/05/25 03:55:02;;;;;;;6.00;4.30;;;;;;100066.83;;;;107708;1276;27398;-31
2022/05/25 03:57:29;;;;;;;4.80;4.10;;;;;;100069.09;;;;107627;1276;28641;-30
2022/05/25 03:59:57;;;;;;;5.10;4.20;;;;;;100068.42;;;;107665;1276;27410;-30
2022/05/25 04:02:25;;;;;;;5.50;4.30;;;;;;100066.30;;;;107769;1276;28886;-31
2022/05/25 04:05:07;;;;;;;5.20;4.10;;;;;;100065.11;;;;107450;1276;28673;-30
2022/05/25 04:07:45;;;;;;;5.70;4.50;;;;;;100068.34;;;;107556;1276;27537;-32
2022/05/25 04:10:21;;;;;;;5.20;3.80;;;;;;100068.77;;;;107663;1276;28718;-30
2022/05/25 04:12:49;;;;;;;5.50;4.20;;;;;;100069.05;;;;107656;1276;29304;-30
2022/05/25 04:15:23;;;;;;;4.90;4.10;;;;;;100067.95;;;;107534;1275;30932;-30
2022/05/25 04:18:00;;;;;;;5.60;4.00;;;;;;100066.11;;;;107587;1276;29264;-31
2022/05/25 04:20:31;;;;;;;5.70;4.50;;;;;;100064.59;;;;107683;1276;28752;-32
2022/05/25 04:22:59;;;;;;;5.90;4.30;;;;;;100066.63;;;;107672;1276;29011;-31
2022/05/25 04:25:27;;;;;;;5.50;4.10;;;;;;100066.67;;;;107650;1276;28022;-30
2022/05/25 04:27:57;;;;;;;5.70;4.20;;;;;;100070.21;;;;107603;1275;28842;-31
2022/05/25 04:30:31;;;;;;;5.20;4.00;;;;;;100068.17;;;;107607;1276;28721;-31
2022/05/25 04:33:01;;;;;;;5.70;4.40;;;;;;100067.89;;;;107606;1275;29545;-31
2022/05/25 04:35:31;;;;;;;5.20;3.90;;;;;;100071.96;;;;107680;1275;31046;-32
2022/05/25 04:38:15;;;;;;;5.50;4.40;;;;;;100071.05;;;;107693;1276;28683;-31
2022/05/25 04:40:54;;;;;;;5.30;4.30;;;;;;100070.67;;;;107679;1275;28687;-31
2022/05/25 04:43:23;;;;;;;5.30;4.30;;;;;;100066.56;;;;107675;1276;29451;-31
2022/05/25 04:45:53;;;;;;;5.00;4.10;;;;;;100060.02;;;;107651;1276;28687;-31
2022/05/25 04:48:23;;;;;;;5.50;4.30;;;;;;100058.03;;;;107713;1275;27819;-30
2022/05/25 04:50:58;;;;;;;4.80;4.10;;;;;;100052.43;;;;107729;1276;29901;-31
2022/05/25 04:53:29;;;;;;;5.50;4.20;;;;;;100059.68;;;;107561;1276;27461;-32
2022/05/25 04:58:47;;;;;;;5.10;4.20;;;;;;100065.91;;;;107731;1276;27444;-31
2022/05/25 05:01:19;;;;;;;5.40;4.50;;;;;;100068.70;;;;107619;1276;28644;-30
2022/05/25 05:03:54;;;;;;;5.30;4.30;;;;;;100074.74;;;;107688;1276;29059;-28
2022/05/25 05:06:22;;;;;;;5.90;4.30;;;;;;100077.04;;;;107692;1276;27372;-31
2022/05/25 05:09:06;;;;;;;5.40;4.10;;;;;;100075.95;;;;107696;1276;28664;-31
2022/05/25 05:11:50;;;;;;;5.20;4.10;;;;;;100075.05;;;;107499;1276;26121;-31
2022/05/25 05:14:24;;;;;;;5.60;4.20;;;;;;100075.08;;;;107598;1276;27310;-31
2022/05/25 05:17:05;;;;;;;5.40;4.40;;;;;;100074.80;;;;107695;1276;30963;-32
2022/05/25 05:19:36;;;;;;;5.70;4.50;;;;;;100071.94;;;;107627;1276;30789;-31
2022/05/25 05:22:05;;;;;;;5.80;4.00;;;;;;100074.83;;;;107617;1276;27631;-31
2022/05/25 05:24:36;;;;;;;5.30;4.50;;;;;;100078.71;;;;107686;1275;27344;-31
2022/05/25 05:27:06;;;;;;;5.90;4.40;;;;;;100080.86;;;;107200;1276;598286;-31
2022/05/25 05:29:39;;;;;;;5.30;4.50;;;;;;100082.06;;;;107562;1276;27586;-31
2022/05/25 05:32:10;;;;;;;5.50;4.70;;;;;;100087.23;;;;107607;1276;28726;-30
2022/05/25 05:34:37;;;;;;;5.90;5.20;;;;;;100084.28;;;;107601;1276;28637;-31
2022/05/25 05:37:20;;;;;;;5.60;4.40;;;;;;100082.19;;;;107616;1276;26250;-29
2022/05/25 05:39:54;;;;;;;7.20;5.00;;;;;;100086.04;;;;107597;1276;30579;-32
2022/05/25 05:42:23;;;;;;;6.70;4.60;;;;;;100085.02;;;;107663;1276;28681;-31
2022/05/25 05:45:02;;;;;;;7.00;5.10;;;;;;100087.43;;;;107633;1276;27581;-32
2022/05/25 05:47:36;;;;;;;6.80;4.90;;;;;;100081.87;;;;107676;1276;28640;-30
2022/05/25 05:50:11;;;;;;;5.70;5.10;;;;;;100083.05;;;;107668;1276;27396;-31
2022/05/25 05:52:38;;;;;;;6.60;4.60;;;;;;100087.71;;;;107670;1276;27835;-30
2022/05/25 05:55:06;;;;;;;6.10;5.10;;;;;;100088.78;;;;107579;1276;26293;-30
2022/05/25 05:57:36;;;;;;;6.90;5.50;;;;;;100088.77;;;;107577;1276;28242;-31
2022/05/25 06:00:11;;;;;;;6.10;4.70;;;;;;100090.64;;;;107628;1276;27910;-30
2022/05/25 06:02:38;;;;;;;6.40;5.60;;;;;;100095.55;;;;107648;1275;26233;-30
2022/05/25 06:05:06;;;;;;;8.90;6.20;;;;;;100098.93;;;;107629;1276;30624;-31
2022/05/25 06:07:37;;;;;;;8.10;6.10;;;;;;100105.13;;;;107581;1281;30400;-31
2022/05/25 06:10:09;;;;;;;8.20;6.30;;;;;;100107.08;;;;107618;1276;26184;-31
2022/05/25 06:12:36;;;;;;;10.70;7.40;;;;;;100106.73;;;;107621;1276;28667;-31
2022/05/25 06:20:38;;;;;;;8.20;6.30;;;;;;100109.05;;;;107523;1276;30589;-30
2022/05/25 06:23:08;;;;;;;7.70;6.00;;;;;;100107.70;;;;107638;1277;27794;-30
2022/05/25 06:25:42;;;;;;;8.50;6.50;;;;;;100106.08;;;;107614;1275;26337;-28
2022/05/25 06:28:12;;;;;;;8.10;6.20;;;;;;100100.52;;;;107613;1276;27689;-30
2022/05/25 06:30:44;;;;;;;7.90;6.30;;;;;;100093.41;;;;107700;1275;26846;-31
2022/05/25 06:33:11;;;;;;;9.40;6.80;;;;;;100091.70;;;;107539;1276;28707;-31
2022/05/25 06:35:39;;;;;;;9.00;7.50;;;;;;100091.61;;;;107684;1276;28832;-30
2022/05/25 06:38:09;;;;;;;9.30;7.40;;;;;;100096.17;;;;107621;1278;27267;-30
2022/05/25 06:40:37;;;;;;;9.30;7.40;;;;;;100092.98;;;;107560;1278;30944;-31
2022/05/25 06:43:06;;;;;;;9.90;7.30;;;;;;100089.57;;;;107554;1275;28670;-30
2022/05/25 06:45:35;;;;;;;11.10;7.70;;;;;;100084.80;;;;107600;1276;30652;-31
2022/05/25 06:48:04;;;;;;;8.70;7.40;;;;;;100084.89;;;;107601;1269;27945;-32
2022/05/25 06:50:34;;;;;;;9.40;7.50;;;;;;100081.96;;;;107619;1276;28767;-32
2022/05/25 06:53:00;;;;;;;8.80;7.10;;;;;;100079.41;;;;107531;1276;28847;-32
2022/05/25 06:55:27;;;;;;;9.60;7.80;;;;;;100077.35;;;;107537;1276;28111;-33
2022/05/25 06:57:53;;;;;;;9.50;7.90;;;;;;100077.59;;;;107510;1276;28690;-31
2022/05/25 07:00:20;;;;;;;10.40;8.10;;;;;;100080.84;;;;107515;1276;27536;-33
2022/05/25 07:02:47;;;;;;;9.60;7.70;;;;;;100082.30;;;;107557;1276;28652;-33
2022/05/25 07:05:13;;;;;;;9.60;7.90;;;;;;100084.34;;;;107560;1276;28312;-32
2022/05/25 07:07:40;;;;;;;8.20;7.30;;;;;;100085.05;;;;107424;1276;28186;-32
2022/05/25 07:10:08;;;;;;;9.40;8.40;;;;;;100088.52;;;;107565;1276;27599;-32
2022/05/25 07:12:34;;;;;;;9.80;8.00;;;;;;100091.98;;;;107569;1276;27574;-33
2022/05/25 07:15:01;;;;;;;10.10;7.70;;;;;;100093.69;;;;107492;1276;28652;-32
2022/05/25 07:17:28;;;;;;;9.90;8.30;;;;;;100095.12;;;;107526;1276;28855;-33
2022/05/25 07:19:54;;;;;;;9.20;7.90;;;;;;100094.19;;;;107548;1276;30879;-32
2022/05/25 07:22:21;;;;;;;9.90;8.10;;;;;;100092.55;;;;107530;1276;26218;-33
2022/05/25 07:24:48;;;;;;;11.60;9.10;;;;;;100094.66;;;;107538;1276;28095;-33
2022/05/25 07:27:14;;;;;;;9.40;8.30;;;;;;100095.36;;;;107534;1276;30643;-32
2022/05/25 07:29:41;;;;;;;10.30;9.20;;;;;;100098.31;;;;107523;1275;28698;-32
2022/05/25 07:32:11;;;;;;;10.00;8.90;;;;;;100099.38;;;;107549;1276;28133;-32
2022/05/25 07:34:50;;;;;;;10.70;9.10;;;;;;100101.73;;;;107556;1276;27376;-32
2022/05/25 07:37:22;;;;;;;10.30;8.80;;;;;;100106.28;;;;107531;1276;28735;-32
2022/05/25 07:39:58;;;;;;;11.10;9.00;;;;;;100106.27;;;;107521;1276;28852;-31
2022/05/25 07:42:26;;;;;;;10.80;9.10;;;;;;100104.30;;;;107499;1276;27588;-31
2022/05/25 07:44:58;;;;;;;9.70;8.70;;;;;;100108.55;;;;107445;1276;29213;-32
2022/05/25 07:47:28;;;;;;;10.70;9.50;;;;;;100107.06;;;;107499;1276;30848;-31
2022/05/25 07:49:55;;;;;;;9.80;8.80;;;;;;100102.60;;;;107497;1276;28057;-31
2022/05/25 07:52:25;;;;;;;9.80;8.80;;;;;;100105.61;;;;107537;1276;28651;-31
2022/05/25 07:54:53;;;;;;;11.10;9.70;;;;;;100109.13;;;;107527;1277;28695;-31
2022/05/25 07:57:20;;;;;;;10.90;9.40;;;;;;100113.90;;;;107527;1276;27327;-31
2022/05/25 07:59:46;;;;;;;10.90;9.90;;;;;;100117.30;;;;107564;1276;29149;-31
2022/05/25 08:07:52;;;;;;;10.00;9.00;;;;;;100115.42;;;;107512;1276;28839;-31
2022/05/25 08:10:23;;;;;;;10.40;9.30;;;;;;100117.48;;;;107543;1276;27963;-31
2022/05/25 08:12:52;;;;;;;10.80;9.60;;;;;;100121.09;;;;107562;1276;27788;-31
2022/05/25 08:15:19;;;;;;;10.60;9.50;;;;;;100125.06;;;;107572;1276;28661;-31
2022/05/25 08:17:45;;;;;;;10.40;9.30;;;;;;100129.11;;;;107497;1277;28104;-31
2022/05/25 08:20:12;;;;;;;11.00;9.70;;;;;;100131.35;;;;107469;1276;27618;-31
2022/05/25 08:22:39;;;;;;;10.80;9.20;;;;;;100136.27;;;;107477;1276;28780;-32
2022/05/25 08:25:09;;;;;;;11.30;9.20;;;;;;100133.09;;;;107479;1276;28699;-33
2022/05/25 08:27:39;;;;;;;10.40;9.30;;;;;;100129.87;;;;107496;1277;28832;-32
2022/05/25 08:30:17;;;;;;;10.30;9.20;;;;;;100126.52;;;;107508;1276;28697;-32
2022/05/25 08:32:44;;;;;;;11.20;9.10;;;;;;100125.15;;;;107478;1276;26225;-31
2022/05/25 08:35:13;;;;;;;10.60;9.40;;;;;;100127.27;;;;107523;1276;27517;-31
2022/05/25 08:37:41;;;;;;;10.20;9.20;;;;;;100129.04;;;;107555;1276;29935;-32
2022/05/25 08:40:11;;;;;;;10.90;9.30;;;;;;100127.80;;;;107552;1276;27640;-32
2022/05/25 08:43:07;;;;;;;10.80;9.50;;;;;;100125.84;;;;107529;1277;28216;-31
2022/05/25 08:45:42;;;;;;;11.30;10.10;;;;;;100128.85;;;;107543;1276;26529;-31
2022/05/25 08:48:13;;;;;;;11.20;9.80;;;;;;100128.78;;;;107483;1276;29649;-31
2022/05/25 08:50:53;;;;;;;11.20;10.10;;;;;;100129.54;;;;107556;1276;30077;-31
2022/05/25 08:53:23;;;;;;;11.20;10.10;;;;;;100138.99;;;;107532;1276;27978;-31
2022/05/25 08:56:31;;;;;;;11.50;10.30;;;;;;100146.53;;;;107528;1276;28709;-28
2022/05/25 08:59:11;;;;;;;11.90;10.60;;;;;;100152.48;;;;107529;1276;26286;-28
2022/05/25 09:01:59;;;;;;;11.20;10.00;;;;;;100156.15;;;;107478;1276;30831;-28
2022/05/25 09:04:52;;;;;;;11.00;9.60;;;;;;100159.39;;;;107549;1276;27529;-31
2022/05/25 09:07:32;;;;;;;11.70;10.50;;;;;;100164.91;;;;107550;1276;28650;-31
2022/05/25 09:09:59;;;;;;;11.90;10.30;;;;;;100168.65;;;;107482;1276;28714;-31
2022/05/25 09:12:34;;;;;;;12.80;11.50;;;;;;100170.51;;;;107546;1276;28719;-31
2022/05/25 09:15:17;;;;;;;13.30;11.10;;;;;;100171.26;;;;107542;1276;28801;-31
2022/05/25 09:18:10;;;;;;;12.20;11.00;;;;;;100180.13;;;;107531;1276;28779;-31
2022/05/25 09:20:49;;;;;;;11.90;10.70;;;;;;100184.15;;;;107507;1277;28641;-32
2022/05/25 09:23:16;;;;;;;12.50;11.20;;;;;;100189.61;;;;107463;1276;28731;-31
2022/05/25 09:25:44;;;;;;;13.70;12.30;;;;;;100191.82;;;;107490;1277;28722;-30
2022/05/25 09:28:21;;;;;;;13.60;12.20;;;;;;100192.23;;;;107574;1276;28389;-30
2022/05/25 09:30:54;;;;;;;13.20;11.80;;;;;;100194.34;;;;107556;1276;28662;-31
2022/05/25 09:33:32;;;;;;;14.00;11.90;;;;;;100195.77;;;;107513;1277;28647;-31
2022/05/25 09:36:04;;;;;;;13.80;12.00;;;;;;100194.52;;;;107529;1276;30406;-31
2022/05/25 09:39:13;;;;;;;13.40;12.00;;;;;;100191.98;;;;107531;1276;27707;-31
2022/05/25 09:41:45;;;;;;;13.50;12.00;;;;;;100189.63;;;;107247;1276;30585;-32
2022/05/25 09:44:18;;;;;;;13.80;12.10;;;;;;100193.05;;;;107558;1276;27569;-32
2022/05/25 09:47:06;;;;;;;14.30;12.80;;;;;;100194.02;;;;107569;1276;28581;-32
2022/05/25 09:49:44;;;;;;;13.40;11.80;;;;;;100190.52;;;;107531;1276;27794;-31
2022/05/25 09:52:15;;;;;;;12.60;11.30;;;;;;100192.73;;;;107555;1276;28610;-32
2022/05/25 09:54:48;;;;;;;14.40;12.90;;;;;;100194.34;;;;107522;1277;28829;-31
2022/05/25 09:57:32;;;;;;;15.50;13.20;;;;;;100192.33;;;;107532;1276;28863;-31
2022/05/25 10:00:35;;;;;;;14.60;12.90;;;;;;100188.11;;;;107525;1276;26143;-31
2022/05/25 10:03:41;;;;;;;13.60;12.20;;;;;;100184.96;;;;107111;1276;28627;-31
2022/05/25 10:06:49;;;;;;;14.10;12.60;;;;;;100183.70;;;;107531;1276;28540;-32
2022/05/25 10:09:23;;;;;;;14.10;12.70;;;;;;100192.16;;;;107533;1276;28840;-32
2022/05/25 10:11:52;;;;;;;;;;;;;;100195.20;;;;107549;1275;28666;-32
2022/05/25 10:14:24;;;;;;;13.80;12.40;;;;;;100196.39;;;;107502;1276;28751;-32
2022/05/25 10:16:53;;;;;;;14.60;13.00;;;;;;100194.73;;;;107567;1276;28459;-30
2022/05/25 10:19:21;;;;;;;13.10;11.80;;;;;;100188.94;;;;107523;1278;28752;-32
2022/05/25 10:21:52;;;;;;;13.60;12.20;;;;;;100186.95;;;;107641;1277;28497;-32
2022/05/25 10:24:27;;;;;;;13.10;11.70;;;;;;100186.84;;;;107618;1276;28711;-31
2022/05/25 10:26:58;;;;;;;13.30;12.00;;;;;;100189.66;;;;107615;1276;27540;-31
2022/05/25 10:38:30;;;;;;;13.10;11.70;;;;;;100184.50;;;;107606;1276;28706;-28
2022/05/25 10:41:37;;;;;;;13.00;11.70;;;;;;100182.29;;;;107536;1280;27738;-28
2022/05/25 10:43:48;;;;;;;11.00;9.90;;;;;;100178.68;;;;107591;1276;26028;-28
2022/05/25 10:46:15;;;;;;;11.90;10.70;;;;;;100179.96;;;;107596;1277;28703;-28
2022/05/25 10:48:52;;;;;;;12.50;11.20;;;;;;100178.80;;;;107547;1277;28700;-28
2022/05/25 10:51:38;;;;;;;11.60;10.40;;;;;;100184.09;;;;107486;1276;28776;-28
2022/05/25 10:54:45;;;;;;;10.90;9.80;;;;;;100188.14;;;;107534;1277;28672;-28
2022/05/25 10:57:50;;;;;;;10.40;9.30;;;;;;100182.98;;;;107424;1277;29143;-28
2022/05/25 11:00:44;;;;;;;11.10;9.90;;;;;;100183.01;;;;107427;1277;30049;-31
2022/05/25 11:03:23;;;;;;;9.60;8.60;;;;;;100178.33;;;;107548;1276;30811;-28
2022/05/25 11:06:15;;;;;;;9.50;8.50;;;;;;100185.46;;;;107612;1277;28824;-30
2022/05/25 11:09:08;;;;;;;9.10;8.10;;;;;;100190.17;;;;107578;1276;28019;-29
2022/05/25 11:11:59;;;;;;;9.70;8.70;;;;;;100194.02;;;;107527;1279;27790;-29
2022/05/25 11:14:55;;;;;;;7.80;7.00;;;;;;100197.55;;;;107462;1279;27468;-29
2022/05/25 11:17:36;;;;;;;8.90;7.30;;;;;;100201.19;;;;107553;1277;28795;-28
2022/05/25 11:20:17;;;;;;;7.50;6.70;;;;;;100207.23;;;;107508;1277;29298;-30
2022/05/25 11:22:58;;;;;;;8.30;6.70;;;;;;100206.98;;;;107516;1278;30891;-28
2022/05/25 11:25:57;;;;;;;7.30;6.60;;;;;;100210.00;;;;107537;1278;27615;-30
2022/05/25 11:29:22;;;;;;;7.90;6.30;;;;;;100214.10;;;;107543;1277;28640;-29
2022/05/25 11:32:34;;;;;;;7.20;6.40;;;;;;100219.14;;;;107529;1277;28890;-31
2022/05/25 11:35:11;;;;;;;6.80;6.00;;;;;;100219.47;;;;107553;1277;28279;-31
2022/05/25 11:37:41;;;;;;;7.70;6.30;;;;;;100214.51;;;;107622;1277;28744;-28
2022/05/25 11:40:48;;;;;;;6.10;5.50;;;;;;100219.23;;;;107593;1276;27711;-28
2022/05/25 11:43:58;;;;;;;6.70;5.20;;;;;;100223.80;;;;107537;1277;28629;-30
2022/05/25 11:46:50;;;;;;;6.00;5.40;;;;;;100229.38;;;;107518;1278;28808;-30
2022/05/25 11:49:56;;;;;;;7.00;5.40;;;;;;100234.65;;;;107486;1277;28647;-29
2022/05/25 11:52:34;;;;;;;6.70;5.10;;;;;;100242.66;;;;107568;1277;28699;-28
2022/05/25 11:55:16;;;;;;;7.00;5.30;;;;;;100244.04;;;;107544;1277;28653;-28
2022/05/25 11:58:00;;;;;;;7.10;5.30;;;;;;100252.17;;;;107597;1277;28636;-28
2022/05/25 12:00:39;;;;;;;6.50;5.10;;;;;;100258.00;;;;107608;1277;28773;-30
2022/05/25 12:03:43;;;;;;;7.30;5.20;;;;;;100257.61;;;;107587;1277;27691;-31
2022/05/25 12:06:33;;;;;;;6.30;5.00;;;;;;100251.96;;;;107583;1277;27272;-29
2022/05/25 12:09:21;;;;;;;5.40;4.60;;;;;;100250.59;;;;107549;1277;27759;-30
2022/05/25 12:11:59;;;;;;;6.00;4.80;;;;;;100249.36;;;;107598;1276;30676;-30
2022/05/25 12:15:10;;;;;;;5.60;4.50;;;;;;100245.35;;;;107633;1277;27569;-30
2022/05/25 12:18:02;;;;;;;6.30;4.20;;;;;;100247.17;;;;107594;1277;28599;-29
2022/05/25 12:20:55;;;;;;;6.00;4.50;;;;;;100242.33;;;;107526;1280;28681;-30
2022/05/25 12:23:29;;;;;;;5.10;4.10;;;;;;100245.31;;;;107541;1278;27550;-30
2022/05/25 12:26:12;;;;;;;5.00;3.90;;;;;;100245.27;;;;107617;1277;30380;-29
2022/05/25 12:28:42;;;;;;;6.10;4.40;;;;;;100248.98;;;;107609;1276;28675;-27
2022/05/25 12:31:14;;;;;;;6.00;4.50;;;;;;100251.67;;;;107510;1277;27554;-30
2022/05/25 12:33:43;;;;;;;5.30;4.10;;;;;;100254.62;;;;107404;1277;27410;-30
2022/05/25 12:36:11;;;;;;;4.60;3.60;;;;;;100268.00;;;;109022;1277;28233;-30
2022/05/25 12:38:39;;;;;;;5.80;4.00;;;;;;100275.70;;;;108533;1277;26572;-30
2022/05/25 12:41:35;;;;;;;5.00;3.80;;;;;;100279.67;;;;108965;1276;27568;-30
2022/05/25 12:49:56;;;;;;;5.30;3.50;;;;;;100289.68;;;;107632;1277;28689;-30
2022/05/25 12:52:29;;;;;;;5.70;3.60;;;;;;100300.21;;;;107633;1276;27656;-30
2022/05/25 12:55:16;;;;;;;5.20;3.60;;;;;;100301.11;;;;107622;1276;27558;-29
2022/05/25 12:57:52;;;;;;;4.70;3.50;;;;;;100298.38;;;;107547;1277;27445;-30
2022/05/25 13:00:21;;;;;;;5.00;3.80;;;;;;100294.06;;;;107819;1277;28015;-30
2022/05/25 13:02:48;;;;;;;5.70;3.70;;;;;;100290.07;;;;107574;1277;30882;-31
2022/05/25 13:05:44;;;;;;;6.40;3.50;;;;;;100287.20;;;;107659;1276;27306;-30
2022/05/25 13:08:46;;;;;;;5.00;3.70;;;;;;100289.83;;;;107623;1277;27511;-30
2022/05/25 13:11:45;;;;;;;5.60;3.70;;;;;;100286.07;;;;107556;1277;28667;-30
2022/05/25 13:14:17;;;;;;;5.10;3.60;;;;;;100289.48;;;;107597;1277;28613;-30
2022/05/25 13:16:51;;;;;;;4.90;3.50;;;;;;100297.94;;;;107606;1277;27531;-30
2022/05/25 13:19:39;;;;;;;5.10;3.20;;;;;;100296.91;;;;107492;1278;27346;-30
2022/05/25 13:22:20;;;;;;;5.00;3.30;;;;;;100297.58;;;;107620;1277;28784;-30
2022/05/25 13:25:02;;;;;;;4.60;3.30;;;;;;100296.93;;;;107611;1277;28530;-30
2022/05/25 13:27:57;;;;;;;5.30;3.70;;;;;;100284.23;;;;107429;1277;254401;-30
2022/05/25 13:30:39;;;;;;;4.60;3.40;;;;;;100281.84;;;;107622;1276;26152;-30
2022/05/25 13:33:29;;;;;;;5.80;3.80;;;;;;100285.16;;;;107578;1277;26569;-29
2022/05/25 13:36:08;;;;;;;4.30;3.00;;;;;;100277.14;;;;107635;1278;28692;-30
2022/05/25 13:38:59;;;;;;;5.50;3.80;;;;;;100269.63;;;;107600;1277;28804;-34
2022/05/25 13:41:49;;;;;;;5.70;3.40;;;;;;100271.45;;;;107631;1277;28636;-29
2022/05/25 13:44:23;;;;;;;4.30;2.90;;;;;;100276.77;;;;107632;1277;27637;-29
2022/05/25 13:46:53;;;;;;;4.50;3.10;;;;;;100273.23;;;;107537;1277;28572;-29
2022/05/25 13:49:27;;;;;;;5.60;3.20;;;;;;100270.70;;;;107576;1277;29956;-30
2022/05/25 13:52:21;;;;;;;4.40;3.00;;;;;;100268.05;;;;107582;1277;28653;-29
2022/05/25 13:55:05;;;;;;;5.20;3.00;;;;;;100262.77;;;;107583;1278;30926;-29
2022/05/25 13:57:38;;;;;;;4.40;2.80;;;;;;100268.16;;;;107598;1278;26057;-30
2022/05/25 14:00:30;;;;;;;4.70;3.00;;;;;;100267.80;;;;107578;1278;28636;-29
2022/05/25 14:03:16;;;;;;;4.30;2.90;;;;;;100274.91;;;;107560;1277;29842;-30
2022/05/25 14:05:52;;;;;;;5.70;3.10;;;;;;100278.79;;;;107547;1278;30648;-29
2022/05/25 14:11:42;;;;;;;;;;;;;;100268.14;;;;107553;1277;28757;-30